createdAt,value
2019-01-20T00:00:23.140Z,954.48
2019-01-20T00:02:49.453Z,954.54
2019-01-20T00:05:15.763Z,954.42
2019-01-20T00:07:42.069Z,954.41
2019-01-20T00:10:08.387Z,954.47
2019-01-20T00:12:34.698Z,954.45
2019-01-20T00:15:01.006Z,954.43
2019-01-20T00:17:27.319Z,954.45
2019-01-20T00:19:53.629Z,954.45
2019-01-20T00:22:19.936Z,954.38
2019-01-20T00:24:46.248Z,954.44
2019-01-20T00:27:12.561Z,954.49
2019-01-20T00:29:38.869Z,954.42
2019-01-20T00:32:05.179Z,954.44
2019-01-20T00:34:31.487Z,954.46
2019-01-20T00:36:57.836Z,954.50
2019-01-20T00:39:24.109Z,954.53
2019-01-20T00:41:50.416Z,954.51
2019-01-20T00:44:16.721Z,954.52
2019-01-20T00:46:43.043Z,954.40
2019-01-20T00:49:09.351Z,954.54
2019-01-20T00:51:35.659Z,954.59
2019-01-20T00:54:01.988Z,954.58
2019-01-20T00:56:28.299Z,954.46
2019-01-20T00:58:54.606Z,954.55
2019-01-20T01:01:20.941Z,954.50
2019-01-20T01:03:47.248Z,954.64
2019-01-20T01:06:13.557Z,954.46
2019-01-20T01:08:39.869Z,954.41
2019-01-20T01:11:06.177Z,954.43
2019-01-20T01:13:32.510Z,954.65
2019-01-20T01:15:58.824Z,954.34
2019-01-20T01:18:25.133Z,954.27
2019-01-20T01:20:51.449Z,954.31
2019-01-20T01:23:17.752Z,954.34
2019-01-20T01:25:44.064Z,954.25
2019-01-20T01:28:10.376Z,954.24
2019-01-20T01:30:36.679Z,954.26
2019-01-20T01:33:02.987Z,954.21
2019-01-20T01:35:29.297Z,954.18
2019-01-20T01:37:55.678Z,954.31
2019-01-20T01:40:21.988Z,954.14
2019-01-20T01:42:48.302Z,954.08
2019-01-20T01:45:14.620Z,954.06
2019-01-20T01:47:40.932Z,953.99
2019-01-20T01:50:07.233Z,954.04
2019-01-20T01:52:33.540Z,953.90
2019-01-20T01:54:59.849Z,953.81
2019-01-20T01:57:26.169Z,953.86
2019-01-20T01:59:52.587Z,953.82
2019-01-20T02:02:18.815Z,953.89
2019-01-20T02:04:45.130Z,953.89
2019-01-20T02:07:11.473Z,953.86
2019-01-20T02:09:39.791Z,953.82
2019-01-20T02:12:04.096Z,953.78
2019-01-20T02:14:30.425Z,953.77
2019-01-20T02:16:56.736Z,953.86
2019-01-20T02:19:23.040Z,953.83
2019-01-20T02:21:49.376Z,953.81
2019-01-20T02:24:15.706Z,953.79
2019-01-20T02:26:42.015Z,953.68
2019-01-20T02:29:08.329Z,953.79
2019-01-20T02:31:34.635Z,953.81
2019-01-20T02:34:00.955Z,953.73
2019-01-20T02:36:27.266Z,953.77
2019-01-20T02:38:53.593Z,953.70
2019-01-20T02:41:19.927Z,953.66
2019-01-20T02:43:46.234Z,953.72
2019-01-20T02:46:12.551Z,953.74
2019-01-20T02:48:38.856Z,953.77
2019-01-20T02:51:05.167Z,953.73
2019-01-20T02:53:31.476Z,953.71
2019-01-20T02:55:57.814Z,953.64
2019-01-20T02:58:24.130Z,953.57
2019-01-20T03:00:50.441Z,953.58
2019-01-20T03:03:16.748Z,953.64
2019-01-20T03:05:43.159Z,953.63
2019-01-20T03:08:09.374Z,953.46
2019-01-20T03:10:35.685Z,953.53
2019-01-20T03:13:01.999Z,953.52
2019-01-20T03:15:29.338Z,953.48
2019-01-20T03:17:54.614Z,953.42
2019-01-20T03:20:20.935Z,953.50
2019-01-20T03:22:47.253Z,953.47
2019-01-20T03:25:13.556Z,953.40
2019-01-20T03:27:39.874Z,953.36
2019-01-20T03:30:06.169Z,953.28
2019-01-20T03:32:32.477Z,953.30
2019-01-20T03:34:58.780Z,953.30
2019-01-20T03:37:25.107Z,953.26
2019-01-20T03:39:51.413Z,953.31
2019-01-20T03:42:17.726Z,953.31
2019-01-20T03:44:44.027Z,953.36
2019-01-20T03:47:10.335Z,953.35
2019-01-20T03:49:36.640Z,953.30
2019-01-20T03:52:02.953Z,953.34
2019-01-20T03:54:29.261Z,953.24
2019-01-20T03:56:55.567Z,953.24
2019-01-20T03:59:21.881Z,953.26
2019-01-20T04:01:48.193Z,953.20
2019-01-20T04:04:14.503Z,953.14
2019-01-20T04:06:40.822Z,953.23
2019-01-20T04:09:07.132Z,953.10
2019-01-20T04:11:33.443Z,953.13
2019-01-20T04:13:59.755Z,953.12
2019-01-20T04:16:26.065Z,953.11
2019-01-20T04:18:52.379Z,953.15
2019-01-20T04:21:18.696Z,953.09
2019-01-20T04:23:44.998Z,953.21
2019-01-20T04:26:11.316Z,953.16
2019-01-20T04:28:37.619Z,953.17
2019-01-20T04:31:03.929Z,953.10
2019-01-20T04:33:30.246Z,953.16
2019-01-20T04:35:56.548Z,953.13
2019-01-20T04:38:22.863Z,953.10
2019-01-20T04:40:49.181Z,953.07
2019-01-20T04:43:15.489Z,953.04
2019-01-20T04:45:41.799Z,953.04
2019-01-20T04:48:08.112Z,952.95
2019-01-20T04:50:34.416Z,952.98
2019-01-20T04:53:00.734Z,952.86
2019-01-20T04:55:27.031Z,952.88
2019-01-20T04:57:53.343Z,952.83
2019-01-20T05:00:19.648Z,952.87
2019-01-20T05:02:45.973Z,952.85
2019-01-20T05:05:12.281Z,952.80
2019-01-20T05:07:38.589Z,952.82
2019-01-20T05:10:04.902Z,952.81
2019-01-20T05:12:37.562Z,952.84
2019-01-20T05:14:57.523Z,952.78
2019-01-20T05:17:23.833Z,952.81
2019-01-20T05:19:50.141Z,952.72
2019-01-20T05:22:16.486Z,952.74
2019-01-20T05:24:42.795Z,952.85
2019-01-20T05:27:09.101Z,952.74
2019-01-20T05:29:35.408Z,952.73
2019-01-20T05:32:01.714Z,952.74
2019-01-20T05:34:28.029Z,952.71
2019-01-20T05:36:54.329Z,952.76
2019-01-20T05:39:20.711Z,952.81
2019-01-20T05:41:47.021Z,952.76
2019-01-20T05:44:13.330Z,952.79
2019-01-20T05:46:39.634Z,952.76
2019-01-20T05:49:06.024Z,952.75
2019-01-20T05:51:32.337Z,952.74
2019-01-20T05:53:58.693Z,952.74
2019-01-20T05:56:24.998Z,952.73
2019-01-20T05:58:51.307Z,952.76
2019-01-20T06:01:17.612Z,952.74
2019-01-20T06:03:43.920Z,952.87
2019-01-20T06:06:10.228Z,952.93
2019-01-20T06:08:36.536Z,952.88
2019-01-20T06:11:02.848Z,952.78
2019-01-20T06:13:29.157Z,952.85
2019-01-20T06:15:55.464Z,952.89
2019-01-20T06:18:21.777Z,952.87
2019-01-20T06:20:48.080Z,952.87
2019-01-20T06:23:14.393Z,952.91
2019-01-20T06:25:40.701Z,952.86
2019-01-20T06:28:07.013Z,952.85
2019-01-20T06:30:33.311Z,952.86
2019-01-20T06:32:59.625Z,952.86
2019-01-20T06:35:25.937Z,952.69
2019-01-20T06:37:52.243Z,952.67
2019-01-20T06:40:18.543Z,952.66
2019-01-20T06:42:44.850Z,952.69
2019-01-20T06:45:11.160Z,952.75
2019-01-20T06:47:37.471Z,952.69
2019-01-20T06:50:03.781Z,952.75
2019-01-20T06:52:30.143Z,952.63
2019-01-20T06:54:56.462Z,952.77
2019-01-20T06:57:22.818Z,952.83
2019-01-20T06:59:49.128Z,952.81
2019-01-20T07:02:15.446Z,952.84
2019-01-20T07:04:41.749Z,952.81
2019-01-20T07:07:08.064Z,952.77
2019-01-20T07:09:34.375Z,952.77
2019-01-20T07:12:00.691Z,952.81
2019-01-20T07:14:26.990Z,952.87
2019-01-20T07:16:53.299Z,952.85
2019-01-20T07:19:19.624Z,952.85
2019-01-20T07:21:45.963Z,952.87
2019-01-20T07:24:12.269Z,952.81
2019-01-20T07:26:38.577Z,952.90
2019-01-20T07:29:04.885Z,952.96
2019-01-20T07:31:31.194Z,952.94
2019-01-20T07:33:57.517Z,952.94
2019-01-20T07:36:23.835Z,952.90
2019-01-20T07:38:50.151Z,952.95
2019-01-20T07:41:16.458Z,952.93
2019-01-20T07:43:42.763Z,952.93
2019-01-20T07:46:09.068Z,953.01
2019-01-20T07:48:35.381Z,953.03
2019-01-20T07:51:01.692Z,952.91
2019-01-20T07:53:28.003Z,952.95
2019-01-20T07:55:54.346Z,952.99
2019-01-20T07:58:20.653Z,953.12
2019-01-20T08:00:46.959Z,953.03
2019-01-20T08:03:13.283Z,952.93
2019-01-20T08:05:39.593Z,953.05
2019-01-20T08:08:05.910Z,952.98
2019-01-20T08:10:32.246Z,952.77
2019-01-20T08:12:58.557Z,952.83
2019-01-20T08:15:24.877Z,952.88
2019-01-20T08:17:51.186Z,953.00
2019-01-20T08:20:17.496Z,952.95
2019-01-20T08:22:43.808Z,953.11
2019-01-20T08:25:10.113Z,953.17
2019-01-20T08:27:36.415Z,953.10
2019-01-20T08:30:02.743Z,953.06
2019-01-20T08:32:29.054Z,953.15
2019-01-20T08:34:55.363Z,953.12
2019-01-20T08:37:28.657Z,953.12
2019-01-20T08:39:48.102Z,953.00
2019-01-20T08:42:14.416Z,952.93
2019-01-20T08:44:40.754Z,952.95
2019-01-20T08:47:07.116Z,952.92
2019-01-20T08:49:33.430Z,953.01
2019-01-20T08:51:59.740Z,952.95
2019-01-20T08:54:26.085Z,952.97
2019-01-20T08:56:52.401Z,953.02
2019-01-20T08:59:18.717Z,952.90
2019-01-20T09:01:45.039Z,952.94
2019-01-20T09:04:11.353Z,952.84
2019-01-20T09:06:37.662Z,952.86
2019-01-20T09:09:04.005Z,952.89
2019-01-20T09:11:30.314Z,952.84
2019-01-20T09:13:56.625Z,952.95
2019-01-20T09:16:22.946Z,952.83
2019-01-20T09:18:49.263Z,952.90
2019-01-20T09:21:15.589Z,952.86
2019-01-20T09:23:41.897Z,952.85
2019-01-20T09:26:08.224Z,952.79
2019-01-20T09:28:34.538Z,952.81
2019-01-20T09:31:00.855Z,952.72
2019-01-20T09:33:28.011Z,952.78
2019-01-20T09:35:54.338Z,952.77
2019-01-20T09:38:20.641Z,952.79
2019-01-20T09:40:46.952Z,952.78
2019-01-20T09:43:13.259Z,952.69
2019-01-20T09:45:39.574Z,952.62
2019-01-20T09:48:05.894Z,952.60
2019-01-20T09:50:32.208Z,952.54
2019-01-20T09:52:58.519Z,952.58
2019-01-20T09:55:24.940Z,952.59
2019-01-20T09:57:51.248Z,952.54
2019-01-20T10:00:17.575Z,952.63
2019-01-20T10:02:43.887Z,952.53
2019-01-20T10:05:20.527Z,952.56
2019-01-20T10:07:45.075Z,952.47
2019-01-20T10:10:11.514Z,952.46
2019-01-20T10:12:37.785Z,952.41
2019-01-20T10:15:04.147Z,952.24
2019-01-20T10:17:48.357Z,952.25
2019-01-20T10:20:17.100Z,952.22
2019-01-20T10:22:41.409Z,952.27
2019-01-20T10:25:14.921Z,952.21
2019-01-20T10:27:35.581Z,952.16
2019-01-20T10:30:00.357Z,952.09
2019-01-20T10:32:26.688Z,952.05
2019-01-20T10:34:59.451Z,952.05
2019-01-20T10:37:22.312Z,952.08
2019-01-20T10:39:48.620Z,952.02
2019-01-20T10:42:14.928Z,952.02
2019-01-20T10:44:41.261Z,951.94
2019-01-20T10:47:07.564Z,952.08
2019-01-20T10:49:33.879Z,952.08
2019-01-20T10:52:00.220Z,952.00
2019-01-20T10:54:26.538Z,951.92
2019-01-20T10:56:52.843Z,951.82
2019-01-20T10:59:19.157Z,951.77
2019-01-20T11:01:45.477Z,951.58
2019-01-20T11:04:11.780Z,951.69
2019-01-20T11:06:38.109Z,951.60
2019-01-20T11:09:04.968Z,951.60
2019-01-20T11:11:31.159Z,951.55
2019-01-20T11:13:57.471Z,951.57
2019-01-20T11:16:23.817Z,951.52
2019-01-20T11:18:50.124Z,951.57
2019-01-20T11:21:16.821Z,951.42
2019-01-20T11:23:43.148Z,951.58
2019-01-20T11:26:09.459Z,951.48
2019-01-20T11:28:35.769Z,951.43
2019-01-20T11:31:02.086Z,951.35
2019-01-20T11:33:28.418Z,951.37
2019-01-20T11:35:54.724Z,951.37
2019-01-20T11:38:21.121Z,951.40
2019-01-20T11:40:47.433Z,951.36
2019-01-20T11:43:13.740Z,951.32
2019-01-20T11:45:40.709Z,951.20
2019-01-20T11:48:07.022Z,951.28
2019-01-20T11:50:33.335Z,951.30
2019-01-20T11:52:59.659Z,951.21
2019-01-20T11:55:25.983Z,951.12
2019-01-20T11:57:52.414Z,951.13
2019-01-20T12:00:19.077Z,951.16
2019-01-20T12:02:45.487Z,951.10
2019-01-20T12:05:11.914Z,951.11
2019-01-20T12:07:38.947Z,951.09
2019-01-20T12:10:05.259Z,951.20
2019-01-20T12:12:31.601Z,951.05
2019-01-20T12:14:57.914Z,950.95
2019-01-20T12:17:24.221Z,950.87
2019-01-20T12:19:50.540Z,950.94
2019-01-20T12:22:16.855Z,950.86
2019-01-20T12:24:43.161Z,950.92
2019-01-20T12:27:09.547Z,950.84
2019-01-20T12:29:35.869Z,950.84
2019-01-20T12:32:02.180Z,950.90
2019-01-20T12:34:28.604Z,951.01
2019-01-20T12:36:54.893Z,950.88
2019-01-20T12:39:21.209Z,950.81
2019-01-20T12:41:47.520Z,950.82
2019-01-20T12:44:13.834Z,950.88
2019-01-20T12:46:40.137Z,950.89
2019-01-20T12:49:06.462Z,950.77
2019-01-20T12:51:32.768Z,950.78
2019-01-20T12:53:59.083Z,950.77
2019-01-20T12:56:25.402Z,950.94
2019-01-20T12:58:51.707Z,950.96
2019-01-20T13:01:18.034Z,950.91
2019-01-20T13:03:44.352Z,950.84
2019-01-20T13:06:10.686Z,950.79
2019-01-20T13:08:36.996Z,950.90
2019-01-20T13:11:03.307Z,950.78
2019-01-20T13:13:29.616Z,950.77
2019-01-20T13:15:55.931Z,950.76
2019-01-20T13:18:22.239Z,950.85
2019-01-20T13:20:48.701Z,950.82
2019-01-20T13:23:15.027Z,950.79
2019-01-20T13:25:41.329Z,950.76
2019-01-20T13:28:07.639Z,950.67
2019-01-20T13:30:33.943Z,950.77
2019-01-20T13:33:00.284Z,950.64
2019-01-20T13:35:26.594Z,950.65
2019-01-20T13:37:52.982Z,950.69
2019-01-20T13:40:19.250Z,950.72
2019-01-20T13:42:45.560Z,950.80
2019-01-20T13:45:11.874Z,950.79
2019-01-20T13:47:38.183Z,950.60
2019-01-20T13:50:04.495Z,950.59
2019-01-20T13:52:30.813Z,950.56
2019-01-20T13:54:57.160Z,950.69
2019-01-20T13:57:23.472Z,950.54
2019-01-20T13:59:49.782Z,950.52
2019-01-20T14:02:16.086Z,950.55
2019-01-20T14:04:42.393Z,950.64
2019-01-20T14:07:08.704Z,950.66
2019-01-20T14:09:35.013Z,950.69
2019-01-20T14:12:01.325Z,950.70
2019-01-20T14:14:27.632Z,950.64
2019-01-20T14:16:53.948Z,950.64
2019-01-20T14:19:21.842Z,950.62
2019-01-20T14:21:46.563Z,950.73
2019-01-20T14:24:12.875Z,950.62
2019-01-20T14:26:39.186Z,950.72
2019-01-20T14:29:05.496Z,950.77
2019-01-20T14:31:31.800Z,950.85
2019-01-20T14:33:58.108Z,950.82
2019-01-20T14:36:24.420Z,950.85
2019-01-20T14:38:50.732Z,950.90
2019-01-20T14:41:17.045Z,950.88
2019-01-20T14:43:43.355Z,950.93
2019-01-20T14:46:09.677Z,950.93
2019-01-20T14:48:35.988Z,950.84
2019-01-20T14:51:02.299Z,950.93
2019-01-20T14:53:28.618Z,950.85
2019-01-20T14:55:54.925Z,950.91
2019-01-20T14:58:21.243Z,950.92
2019-01-20T15:00:47.553Z,950.93
2019-01-20T15:03:13.865Z,950.87
2019-01-20T15:05:40.163Z,950.92
2019-01-20T15:08:06.471Z,950.86
2019-01-20T15:10:32.791Z,950.86
2019-01-20T15:12:59.100Z,950.89
2019-01-20T15:15:25.412Z,950.93
2019-01-20T15:17:51.722Z,950.87
2019-01-20T15:20:18.039Z,950.93
2019-01-20T15:22:44.391Z,950.95
2019-01-20T15:25:10.667Z,950.94
2019-01-20T15:27:38.066Z,950.83
2019-01-20T15:30:03.291Z,950.89
2019-01-20T15:32:29.595Z,950.94
2019-01-20T15:34:55.899Z,950.91
2019-01-20T15:37:22.209Z,950.86
2019-01-20T15:39:50.435Z,950.86
2019-01-20T15:42:16.684Z,950.81
2019-01-20T15:44:43.010Z,950.83
2019-01-20T15:47:09.320Z,950.93
2019-01-20T15:49:35.653Z,951.05
2019-01-20T15:52:01.990Z,950.98
2019-01-20T15:54:28.306Z,951.07
2019-01-20T15:56:54.628Z,951.05
2019-01-20T15:59:20.937Z,951.19
2019-01-20T16:01:47.258Z,951.13
2019-01-20T16:04:13.577Z,951.17
2019-01-20T16:06:40.008Z,951.17
2019-01-20T16:09:06.315Z,951.15
2019-01-20T16:11:32.665Z,951.13
2019-01-20T16:13:59.153Z,951.13
2019-01-20T16:16:25.469Z,951.11
2019-01-20T16:18:51.780Z,951.16
2019-01-20T16:21:18.087Z,951.12
2019-01-20T16:23:44.480Z,951.03
2019-01-20T16:26:10.794Z,951.05
2019-01-20T16:28:39.163Z,950.96
2019-01-20T16:31:03.535Z,950.91
2019-01-20T16:33:29.847Z,950.85
2019-01-20T16:35:56.178Z,950.90
2019-01-20T16:38:22.495Z,951.00
2019-01-20T16:40:48.802Z,951.10
2019-01-20T16:43:15.409Z,951.16
2019-01-20T16:45:42.458Z,951.08
2019-01-20T16:48:08.036Z,951.08
2019-01-20T16:50:34.345Z,951.30
2019-01-20T16:53:00.653Z,951.33
2019-01-20T16:55:26.966Z,951.28
2019-01-20T16:57:53.279Z,951.30
2019-01-20T17:00:19.594Z,951.36
2019-01-20T17:02:45.905Z,951.29
2019-01-20T17:05:12.227Z,951.36
2019-01-20T17:07:38.532Z,951.51
2019-01-20T17:10:04.872Z,951.46
2019-01-20T17:12:31.409Z,951.36
2019-01-20T17:14:57.733Z,951.33
2019-01-20T17:17:24.032Z,951.37
2019-01-20T17:19:50.364Z,951.42
2019-01-20T17:22:16.678Z,951.39
2019-01-20T17:24:42.992Z,951.46
2019-01-20T17:27:09.720Z,951.45
2019-01-20T17:29:36.314Z,951.39
2019-01-20T17:32:03.606Z,951.54
2019-01-20T17:34:29.326Z,951.51
2019-01-20T17:36:55.643Z,951.52
2019-01-20T17:39:22.360Z,951.56
2019-01-20T17:41:48.915Z,951.64
2019-01-20T17:44:15.230Z,951.58
2019-01-20T17:46:41.543Z,951.66
2019-01-20T17:49:07.947Z,951.65
2019-01-20T17:51:34.259Z,951.66
2019-01-20T17:54:03.378Z,951.67
2019-01-20T17:56:29.686Z,951.73
2019-01-20T17:58:56.051Z,951.73
2019-01-20T18:01:22.310Z,951.68
2019-01-20T18:03:48.624Z,951.75
2019-01-20T18:06:14.935Z,951.68
2019-01-20T18:08:41.278Z,951.73
2019-01-20T18:11:07.585Z,951.71
2019-01-20T18:13:33.896Z,951.81
2019-01-20T18:16:00.215Z,951.83
2019-01-20T18:18:26.537Z,951.84
2019-01-20T18:20:52.853Z,951.85
2019-01-20T18:23:19.157Z,951.91
2019-01-20T18:25:45.521Z,951.91
2019-01-20T18:28:11.832Z,952.00
2019-01-20T18:30:38.138Z,952.00
2019-01-20T18:33:04.462Z,952.03
2019-01-20T18:35:30.774Z,952.03
2019-01-20T18:37:57.361Z,952.06
2019-01-20T18:40:23.681Z,952.03
2019-01-20T18:42:52.454Z,952.01
2019-01-20T18:45:18.766Z,952.03
2019-01-20T18:47:45.090Z,951.98
2019-01-20T18:50:11.407Z,952.02
2019-01-20T18:52:37.728Z,952.08
2019-01-20T18:55:04.042Z,952.03
2019-01-20T18:57:30.374Z,952.06
2019-01-20T18:59:56.677Z,952.07
2019-01-20T19:02:22.983Z,952.06
2019-01-20T19:04:49.308Z,952.05
2019-01-20T19:07:15.616Z,952.04
2019-01-20T19:09:41.931Z,952.08
2019-01-20T19:12:08.246Z,952.06
2019-01-20T19:14:34.561Z,952.14
2019-01-20T19:17:01.017Z,952.13
2019-01-20T19:19:27.354Z,952.13
2019-01-20T19:21:53.651Z,952.19
2019-01-20T19:24:19.977Z,952.20
2019-01-20T19:26:46.606Z,952.22
2019-01-20T19:29:12.917Z,952.22
2019-01-20T19:31:39.244Z,952.16
2019-01-20T19:34:05.595Z,952.20
2019-01-20T19:36:32.950Z,952.22
2019-01-20T19:38:59.269Z,952.23
2019-01-20T19:41:25.580Z,952.19
2019-01-20T19:43:51.897Z,952.30
2019-01-20T19:46:18.217Z,952.32
2019-01-20T19:48:44.537Z,952.36
2019-01-20T19:51:10.856Z,952.31
2019-01-20T19:53:37.188Z,952.36
2019-01-20T19:56:03.532Z,952.32
2019-01-20T19:58:29.849Z,952.36
2019-01-20T20:00:56.191Z,952.40
2019-01-20T20:03:22.549Z,952.35
2019-01-20T20:05:48.866Z,952.38
2019-01-20T20:08:15.206Z,952.39
2019-01-20T20:10:41.537Z,952.33
2019-01-20T20:13:07.872Z,952.42
2019-01-20T20:15:34.327Z,952.43
2019-01-20T20:18:00.640Z,952.44
2019-01-20T20:20:27.029Z,952.44
2019-01-20T20:22:53.292Z,952.33
2019-01-20T20:25:19.608Z,952.42
2019-01-20T20:27:45.938Z,952.44
2019-01-20T20:30:12.237Z,952.40
2019-01-20T20:32:38.553Z,952.38
2019-01-20T20:35:04.910Z,952.46
2019-01-20T20:37:31.181Z,952.48
2019-01-20T20:39:57.493Z,952.47
2019-01-20T20:42:23.830Z,952.49
2019-01-20T20:44:50.136Z,952.44
2019-01-20T20:47:16.454Z,952.51
2019-01-20T20:49:42.802Z,952.50
2019-01-20T20:52:09.078Z,952.56
2019-01-20T20:54:35.852Z,952.53
2019-01-20T20:57:01.823Z,952.63
2019-01-20T20:59:28.134Z,952.55
2019-01-20T21:01:54.451Z,952.61
2019-01-20T21:04:20.758Z,952.64
2019-01-20T21:06:47.076Z,952.70
2019-01-20T21:09:13.402Z,952.75
2019-01-20T21:11:39.722Z,952.78
2019-01-20T21:14:06.050Z,952.73
2019-01-20T21:16:37.850Z,952.76
2019-01-20T21:18:58.684Z,952.79
2019-01-20T21:21:26.662Z,952.80
2019-01-20T21:23:51.306Z,952.75
2019-01-20T21:26:17.620Z,952.76
2019-01-20T21:28:43.921Z,952.85
2019-01-20T21:31:10.395Z,952.76
2019-01-20T21:33:36.706Z,952.84
2019-01-20T21:36:03.018Z,952.92
2019-01-20T21:38:29.334Z,952.90
2019-01-20T21:40:55.649Z,952.88
2019-01-20T21:43:21.982Z,952.91
2019-01-20T21:45:48.300Z,952.93
2019-01-20T21:48:14.631Z,952.92
2019-01-20T21:50:40.945Z,952.89
2019-01-20T21:53:07.264Z,952.93
2019-01-20T21:55:33.581Z,952.91
2019-01-20T21:57:59.897Z,952.96
2019-01-20T22:00:26.230Z,952.96
2019-01-20T22:02:52.545Z,953.03
2019-01-20T22:05:18.909Z,953.04
2019-01-20T22:07:45.192Z,953.00
2019-01-20T22:10:11.506Z,953.00
2019-01-20T22:12:37.836Z,953.06
2019-01-20T22:15:04.199Z,953.09
2019-01-20T22:17:30.528Z,953.03
2019-01-20T22:19:56.849Z,953.03
2019-01-20T22:22:23.175Z,952.99
2019-01-20T22:24:49.490Z,953.00
2019-01-20T22:27:15.808Z,952.95
2019-01-20T22:29:42.119Z,952.91
2019-01-20T22:32:08.477Z,952.99
2019-01-20T22:34:34.757Z,953.01
2019-01-20T22:37:01.076Z,953.05
2019-01-20T22:39:27.408Z,953.04
2019-01-20T22:41:53.833Z,952.99
2019-01-20T22:44:20.063Z,952.99
2019-01-20T22:46:46.391Z,952.96
2019-01-20T22:49:12.694Z,952.95
2019-01-20T22:51:39.051Z,952.94
2019-01-20T22:54:05.404Z,952.92
2019-01-20T22:56:31.720Z,952.93
2019-01-20T22:58:58.032Z,952.96
2019-01-20T23:01:24.342Z,952.95
2019-01-20T23:03:50.655Z,952.92
2019-01-20T23:06:16.964Z,952.95
2019-01-20T23:08:43.304Z,952.89
2019-01-20T23:11:09.613Z,952.92
2019-01-20T23:13:35.933Z,952.94
2019-01-20T23:16:02.237Z,952.92
2019-01-20T23:18:28.545Z,952.94
2019-01-20T23:20:54.858Z,952.94
2019-01-20T23:23:21.172Z,952.96
2019-01-20T23:25:47.483Z,952.88
2019-01-20T23:28:14.091Z,952.94
2019-01-20T23:30:42.808Z,952.85
2019-01-20T23:33:09.123Z,952.87
2019-01-20T23:35:35.451Z,952.82
2019-01-20T23:38:01.769Z,952.86
2019-01-20T23:40:28.080Z,952.81
2019-01-20T23:42:54.394Z,952.85
2019-01-20T23:45:20.703Z,952.82
2019-01-20T23:47:47.033Z,952.89
2019-01-20T23:50:13.321Z,952.84
2019-01-20T23:52:39.681Z,952.87
2019-01-20T23:55:05.941Z,952.91
2019-01-20T23:57:32.244Z,952.91
2019-01-20T23:59:58.562Z,952.86
